Boundless — WDJ4923 — position and weather

sailwx.info

Track history (hours):
 
Tides and Currents Weather Stations Pressure Air Temp Water Temp Dewpoint Dewpoint Depression Visibility Wind Speed Wind Dir Waves Ship Positions

Boundless

Owner: Sharpe, James D, Vienna, VA. More information available from US FCC via Universal Licensing System.

Last reported at 2018-Jun-14 13:58 UTC. Time now 2018-Jun-23 17:49 UTC.
Position N 32°46' W 079°56'.
Warning: this ship's position is 9 days out of date.

Length 19 m.

Type: Sailing vessel. MMSI: 367782520.

Date/timePositionNaut miles runAvg speedWind from/ knotsBaromVisibWave heightAir tempDewpointWater temp
2018-Jun-14 13:58N 32°46' W 079°56'1 3.0
2018-Jun-14 13:29N 32°47' W 079°57'0 0.0
2018-Jun-14 12:59N 32°47' W 079°57'0 0.0
2018-Jun-14 12:29N 32°47' W 079°57'0 0.0
2018-Jun-12 17:15N 32°47' W 079°57'  
2018-Jun-09 14:58N 32°47' W 079°57'0 0.0
2018-Jun-09 14:28N 32°47' W 079°57'0 0.0
2018-Jun-09 13:58N 32°47' W 079°57'0 0.0
2018-Jun-09 13:29N 32°47' W 079°57'0 0.0
2018-Jun-09 12:47N 32°47' W 079°57'0 0.0
2018-Jun-09 11:21N 32°47' W 079°57'0 0.0
2018-Jun-07 19:52N 32°47' W 079°57'1 3.6
2018-Jun-07 19:29N 32°46' W 079°56'402 8.0
2018-Jun-05 17:07N 26°04' W 079°51'2 9.6
2018-Jun-05 16:58N 26°03' W 079°52'6 8.8
2018-Jun-05 16:14N 25°57' W 079°56'3 8.9
2018-Jun-05 15:56N 25°55' W 079°58'5 9.5
2018-Jun-05 15:25N 25°51' W 080°01'4 8.6
2018-Jun-05 15:00N 25°48' W 080°04'4 7.3
2018-Jun-05 14:30N 25°46' W 080°06'2 3.2
2018-Jun-05 13:55N 25°46' W 080°08'0 0.0
2018-Jun-05 13:25N 25°46' W 080°08'0 0.0
2018-Jun-05 12:55N 25°46' W 080°08'  
Track history (hours):
 
Tides and Currents Weather Stations Pressure Air Temp Water Temp Dewpoint Dewpoint Depression Visibility Wind Speed Wind Dir Waves Ship Positions

Boundless

Owner: Sharpe, James D, Vienna, VA. More information available from US FCC via Universal Licensing System.

Last reported at 2018-Jun-14 13:58 UTC. Time now 2018-Jun-23 17:49 UTC.
Position N 32°46' W 079°56'.
Warning: this ship's position is 9 days out of date.

Length 19 m.

Type: Sailing vessel. MMSI: 367782520.

Date/timePositionNaut miles runAvg speedWind from/ knotsBaromVisibWave heightAir tempDewpointWater temp
2018-Jun-14 13:58N 32°46' W 079°56'1 3.0
2018-Jun-14 13:29N 32°47' W 079°57'0 0.0
2018-Jun-14 12:59N 32°47' W 079°57'0 0.0
2018-Jun-14 12:29N 32°47' W 079°57'0 0.0
2018-Jun-12 17:15N 32°47' W 079°57'  
2018-Jun-09 14:58N 32°47' W 079°57'0 0.0
2018-Jun-09 14:28N 32°47' W 079°57'0 0.0
2018-Jun-09 13:58N 32°47' W 079°57'0 0.0
2018-Jun-09 13:29N 32°47' W 079°57'0 0.0
2018-Jun-09 12:47N 32°47' W 079°57'0 0.0
2018-Jun-09 11:21N 32°47' W 079°57'0 0.0
2018-Jun-07 19:52N 32°47' W 079°57'1 3.6
2018-Jun-07 19:29N 32°46' W 079°56'402 8.0
2018-Jun-05 17:07N 26°04' W 079°51'2 9.6
2018-Jun-05 16:58N 26°03' W 079°52'6 8.8
2018-Jun-05 16:14N 25°57' W 079°56'3 8.9
2018-Jun-05 15:56N 25°55' W 079°58'5 9.5
2018-Jun-05 15:25N 25°51' W 080°01'4 8.6
2018-Jun-05 15:00N 25°48' W 080°04'4 7.3
2018-Jun-05 14:30N 25°46' W 080°06'2 3.2
2018-Jun-05 13:55N 25°46' W 080°08'0 0.0
2018-Jun-05 13:25N 25°46' W 080°08'0 0.0
2018-Jun-05 12:55N 25°46' W 080°08'  

Dump ship's entire track history